createdAt,value
2017-10-23T08:14:01.510Z,1006.86
2017-10-23T08:15:04.013Z,1006.87
2017-10-23T08:16:06.813Z,1006.96
2017-10-23T08:17:09.625Z,1006.93
2017-10-23T08:18:12.561Z,1006.91
2017-10-23T08:19:15.416Z,1006.90
2017-10-23T08:20:17.452Z,1006.99
2017-10-23T08:21:20.264Z,1006.95
2017-10-23T08:22:23.084Z,1006.99
2017-10-23T08:23:25.926Z,1006.98
2017-10-23T08:24:28.816Z,1006.92
2017-10-23T08:25:31.493Z,1006.95
2017-10-23T08:26:34.412Z,1006.93
2017-10-23T08:27:37.421Z,1006.97
2017-10-23T08:28:40.332Z,1006.97
2017-10-23T08:29:43.156Z,1006.95
2017-10-23T08:30:45.216Z,1006.92
2017-10-23T08:31:30.859Z,1006.92
2017-10-23T08:32:34.258Z,1006.92
2017-10-23T08:33:35.945Z,1006.89
2017-10-23T08:34:38.218Z,1006.90
2017-10-23T08:35:41.587Z,1006.91
2017-10-23T08:36:45.802Z,1006.91
2017-10-23T08:37:49.313Z,1006.97
2017-10-23T08:38:52.903Z,1006.95
2017-10-23T08:39:55.334Z,1007.02
2017-10-23T08:40:59.708Z,1006.97
2017-10-23T08:42:04.171Z,1006.97
2017-10-23T08:43:08.470Z,1007.01
2017-10-23T08:44:12.855Z,1007.01
2017-10-23T08:45:16.974Z,1006.98
2017-10-23T08:46:21.208Z,1006.98
2017-10-23T08:47:23.632Z,1006.92
2017-10-23T08:48:28.185Z,1006.97
2017-10-23T08:49:30.423Z,1006.96
2017-10-23T08:50:35.071Z,1006.96
2017-10-23T08:51:39.355Z,1006.95
2017-10-23T08:52:46.767Z,1006.95
2017-10-23T08:53:51.008Z,1006.96
2017-10-23T08:54:54.717Z,1006.90
2017-10-23T08:55:58.998Z,1006.92
2017-10-23T08:57:12.911Z,1006.95
2017-10-23T08:58:29.647Z,1006.93
2017-10-23T08:59:33.613Z,1006.97
2017-10-23T09:00:37.436Z,1006.94
2017-10-23T09:01:42.766Z,1006.94
2017-10-23T09:02:46.661Z,1006.94
2017-10-23T09:03:49.211Z,1006.93
2017-10-23T09:05:00.053Z,1006.98
2017-10-23T09:06:04.503Z,1007.02
2017-10-23T09:07:07.980Z,1006.99
2017-10-23T09:08:12.461Z,1007.02
2017-10-23T09:09:15.964Z,1006.97
2017-10-23T09:10:18.332Z,1006.99
2017-10-23T09:11:20.852Z,1006.98
2017-10-23T09:12:25.173Z,1007.03
2017-10-23T09:13:29.610Z,1007.06
2017-10-23T09:14:33.091Z,1007.09
2017-10-23T09:15:37.711Z,1007.16
2017-10-23T09:16:42.833Z,1007.14
2017-10-23T09:17:45.255Z,1007.16
2017-10-23T09:18:48.451Z,1007.17
2017-10-23T09:19:52.805Z,1007.21
2017-10-23T09:20:57.628Z,1007.24
2017-10-23T09:22:12.986Z,1007.25
2017-10-23T09:23:17.501Z,1007.20
2017-10-23T09:24:24.925Z,1007.31
2017-10-23T09:25:29.538Z,1007.34
2017-10-23T09:26:31.966Z,1007.29
2017-10-23T09:27:34.453Z,1007.22
2017-10-23T09:28:38.242Z,1007.19
2017-10-23T09:29:43.436Z,1007.21
2017-10-23T09:30:48.386Z,1007.24
2017-10-23T09:31:53.386Z,1007.29
2017-10-23T09:32:58.531Z,1007.29
2017-10-23T09:34:03.751Z,1007.34
2017-10-23T09:35:11.014Z,1007.31
2017-10-23T09:36:16.085Z,1007.38
2017-10-23T09:37:20.845Z,1007.38
2017-10-23T09:38:25.338Z,1007.39
2017-10-23T09:39:29.880Z,1007.36
2017-10-23T09:40:34.099Z,1007.38
2017-10-23T09:41:38.233Z,1007.36
2017-10-23T09:42:42.751Z,1007.34
2017-10-23T09:43:47.735Z,1007.35
2017-10-23T09:44:49.882Z,1007.32
2017-10-23T09:45:52.190Z,1007.31
2017-10-23T09:46:57.022Z,1007.33
2017-10-23T09:48:05.649Z,1007.30
2017-10-23T09:49:33.077Z,1007.31
2017-10-23T09:50:37.650Z,1007.33
2017-10-23T09:51:42.452Z,1007.28
2017-10-23T09:52:47.117Z,1007.30
2017-10-23T09:53:54.349Z,1007.30
2017-10-23T09:55:11.801Z,1007.29
2017-10-23T09:56:16.423Z,1007.30
2017-10-23T09:57:21.323Z,1007.31
2017-10-23T09:58:25.431Z,1007.35
2017-10-23T09:59:31.323Z,1007.38
2017-10-23T10:00:34.542Z,1007.28
2017-10-23T10:01:38.101Z,1007.37
2017-10-23T10:02:42.670Z,1007.34
2017-10-23T10:03:49.882Z,1007.38
2017-10-23T10:04:56.209Z,1007.34
2017-10-23T10:06:00.532Z,1007.33
2017-10-23T10:07:07.410Z,1007.32
2017-10-23T10:08:13.403Z,1007.37
2017-10-23T10:09:17.891Z,1007.39
2017-10-23T10:10:20.766Z,1007.36
2017-10-23T10:11:25.148Z,1007.34
2017-10-23T10:12:27.999Z,1007.37
2017-10-23T10:13:32.086Z,1007.39
2017-10-23T10:14:34.669Z,1007.34
2017-10-23T10:15:36.611Z,1007.37
2017-10-23T10:16:39.568Z,1007.38
2017-10-23T10:17:42.350Z,1007.37
2017-10-23T10:18:45.111Z,1007.37
2017-10-23T10:19:47.844Z,1007.36
2017-10-23T10:20:50.709Z,1007.36
2017-10-23T10:21:53.368Z,1007.37
2017-10-23T10:22:56.167Z,1007.40
2017-10-23T10:23:58.960Z,1007.44
2017-10-23T10:25:01.771Z,1007.46
2017-10-23T10:26:05.991Z,1007.45
2017-10-23T10:27:08.768Z,1007.50
2017-10-23T10:28:11.605Z,1007.52
2017-10-23T10:29:14.380Z,1007.51
2017-10-23T10:30:17.585Z,1007.55
2017-10-23T10:31:20.337Z,1007.53
2017-10-23T10:32:23.356Z,1007.53
2017-10-23T10:33:26.197Z,1007.59
2017-10-23T10:34:29.018Z,1007.63
2017-10-23T10:35:31.020Z,1007.63
2017-10-23T10:36:33.086Z,1007.65
2017-10-23T10:37:35.881Z,1007.64
2017-10-23T10:38:38.757Z,1007.60
2017-10-23T10:39:41.162Z,1007.61
2017-10-23T10:40:45.685Z,1007.62
2017-10-23T10:41:49.041Z,1007.63
2017-10-23T10:42:51.935Z,1007.68
2017-10-23T10:43:54.865Z,1007.67
2017-10-23T10:44:57.667Z,1007.65
2017-10-23T10:46:00.581Z,1007.69
2017-10-23T10:47:03.542Z,1007.69
2017-10-23T10:48:06.664Z,1007.70
2017-10-23T10:49:09.727Z,1007.66
2017-10-23T10:50:12.497Z,1007.68
2017-10-23T10:51:15.240Z,1007.68
2017-10-23T10:52:18.263Z,1007.70
2017-10-23T10:53:21.157Z,1007.78
2017-10-23T10:54:25.440Z,1007.78
2017-10-23T10:55:28.203Z,1007.77
2017-10-23T10:56:31.053Z,1007.77
2017-10-23T10:57:33.946Z,1007.81
2017-10-23T10:58:36.718Z,1007.75
2017-10-23T10:59:39.645Z,1007.74
2017-10-23T11:00:42.745Z,1007.77
2017-10-23T11:01:46.069Z,1007.74
2017-10-23T11:02:48.845Z,1007.75
2017-10-23T11:03:51.689Z,1007.74
2017-10-23T11:04:54.430Z,1007.80
2017-10-23T11:05:57.259Z,1007.81
2017-10-23T11:07:00.086Z,1007.82
2017-10-23T11:08:03.715Z,1007.83
2017-10-23T11:09:06.601Z,1007.90
2017-10-23T11:10:10.545Z,1007.83
2017-10-23T11:11:16.301Z,1007.84
2017-10-23T11:12:19.342Z,1007.82
2017-10-23T11:13:22.118Z,1007.82
2017-10-23T11:14:25.077Z,1007.84
2017-10-23T11:15:28.193Z,1007.80
2017-10-23T11:16:31.107Z,1007.84
2017-10-23T11:17:34.001Z,1007.88
2017-10-23T11:18:36.963Z,1007.85
2017-10-23T11:19:39.788Z,1007.84
2017-10-23T11:20:42.853Z,1007.88
2017-10-23T11:21:46.538Z,1007.83
2017-10-23T11:22:49.431Z,1007.82
2017-10-23T11:23:52.877Z,1007.83
2017-10-23T11:24:55.853Z,1007.83
2017-10-23T11:25:58.641Z,1007.80
2017-10-23T11:27:01.475Z,1007.84
2017-10-23T11:28:04.213Z,1007.84
2017-10-23T11:29:07.095Z,1007.79
2017-10-23T11:30:10.110Z,1007.77
2017-10-23T11:31:12.847Z,1007.83
2017-10-23T11:32:15.649Z,1007.82
2017-10-23T11:33:17.898Z,1007.83
2017-10-23T11:34:20.797Z,1007.83
2017-10-23T11:35:23.608Z,1007.82
2017-10-23T11:36:26.400Z,1007.87
2017-10-23T11:37:28.480Z,1007.87
2017-10-23T11:38:30.995Z,1007.82
2017-10-23T11:39:33.879Z,1007.81
2017-10-23T11:40:36.750Z,1007.81
2017-10-23T11:41:39.551Z,1007.79
2017-10-23T11:42:42.545Z,1007.85
2017-10-23T11:43:45.383Z,1007.82
2017-10-23T11:44:48.207Z,1007.83
2017-10-23T11:45:51.044Z,1007.82
2017-10-23T11:46:54.064Z,1007.83
2017-10-23T11:47:57.884Z,1007.85
2017-10-23T11:49:00.818Z,1007.82
2017-10-23T11:50:03.600Z,1007.87
2017-10-23T11:51:07.131Z,1007.91
2017-10-23T11:52:09.874Z,1007.89
2017-10-23T11:53:12.764Z,1007.89
2017-10-23T11:54:15.574Z,1007.89
2017-10-23T11:55:18.395Z,1007.89
2017-10-23T11:56:20.433Z,1007.88
2017-10-23T11:57:23.181Z,1007.90
2017-10-23T11:58:26.679Z,1007.89
2017-10-23T11:59:29.443Z,1007.88
2017-10-23T12:00:32.361Z,1007.93
2017-10-23T12:01:35.413Z,1007.90
2017-10-23T12:02:38.135Z,1007.87
2017-10-23T12:03:40.093Z,1007.91
2017-10-23T12:04:42.903Z,1007.94
2017-10-23T12:05:46.657Z,1007.97
2017-10-23T12:06:49.880Z,1007.91
2017-10-23T12:07:52.958Z,1007.87
2017-10-23T12:08:55.575Z,1007.89
2017-10-23T12:10:03.460Z,1007.88
2017-10-23T12:11:06.268Z,1007.87
2017-10-23T12:12:09.151Z,1007.86
2017-10-23T12:13:11.989Z,1007.87
2017-10-23T12:14:14.915Z,1007.84
2017-10-23T12:15:17.683Z,1007.85
2017-10-23T12:16:20.965Z,1007.85
2017-10-23T12:17:24.116Z,1007.89
2017-10-23T12:18:27.093Z,1007.89
2017-10-23T12:19:29.881Z,1007.92
2017-10-23T12:20:32.672Z,1007.90
2017-10-23T12:21:35.100Z,1007.94
2017-10-23T12:22:37.095Z,1007.91
2017-10-23T12:23:39.870Z,1007.92
2017-10-23T12:24:42.578Z,1007.93
2017-10-23T12:25:45.315Z,1007.93
2017-10-23T12:26:48.168Z,1007.96
2017-10-23T12:27:52.373Z,1007.93
2017-10-23T12:28:55.153Z,1007.95
2017-10-23T12:29:57.909Z,1008.01
2017-10-23T12:31:00.682Z,1007.97
2017-10-23T12:32:03.468Z,1007.97
2017-10-23T12:33:06.578Z,1008.01
2017-10-23T12:34:09.349Z,1008.01
2017-10-23T12:35:12.385Z,1008.03
2017-10-23T12:36:14.563Z,1008.01
2017-10-23T12:37:17.677Z,1007.99
2017-10-23T12:38:20.439Z,1008.02
2017-10-23T12:39:23.316Z,1008.06
2017-10-23T12:40:26.060Z,1008.01
2017-10-23T12:41:29.641Z,1008.03
2017-10-23T12:42:45.403Z,1008.01
2017-10-23T12:43:48.250Z,1008.02
